Airfield :
LOGIN :

Register | Disclaimer

   EN    FR    IT 

 










Legend :    VFR   Marginal VFR   IFR   Intensive IFR   Very Intensive IFR
Visi :
Ceiling :
>= 8 km
>= 3000ft
5 to 8 km
1000 to 3000 ft
1500m to 5 km
500 to 1000 ft
800 to 1500m
200 to 500 ft
< 800m
< 200 ft
Symbols :   Thunderstorms  Fog  Heavy snow  Heavy precipitations  Wind > 20 kt
SIGMETs :     Misc.  Thunderstorms  Icing  Turbulence  Mountain Waves  Volcanic Ashes






- Airport Elevation : 299 ft
- IATA code : EDM


LFRI - La Roche Sur Yon - Les Ajoncs

CURRENT METAR :
  • 211330Z AUTO 02016KT 9999 BKN044 OVC052 11/03 Q1025 TEMPO 02015G25KT

EXPIRED METARs :
  • 211300Z AUTO 04014KT 360V070 9999 FEW040 BKN049 12/04 Q1025 TEMPO 02015G25KT
  • 211230Z AUTO 03016KT 9999 SCT035 SCT042 BKN050 11/03 Q1025 TEMPO 02015G25KT
  • 211200Z AUTO 03015KT 360V060 9999 BKN038 OVC047 11/04 Q1026 TEMPO 02015G25KT
  • 211130Z AUTO 03015KT 350V050 9999 SCT037 BKN043 BKN054 11/03 Q1025 TEMPO 02015G25KT
  • 211100Z AUTO 04015KT 9999 SCT035 SCT042 OVC052 12/04 Q1025 TEMPO 02015G25KT
  • 211030Z AUTO 04016KT 9999 FEW037 BKN054 11/04 Q1026 TEMPO 02015G25KT
  • 211000Z AUTO 04016KT 010V070 9999 SCT037 SCT043 11/03 Q1026 TEMPO 02015G25KT
  • 210930Z AUTO 03015KT 9999 BKN036 10/02 Q1026 TEMPO 02015G25KT
  • 210900Z AUTO 05011KT CAVOK 10/04 Q1026 TEMPO 02015G25KT

TAF TAF LFRI
Valid from the 21 at 12:00 until the 22 at 12:00 UTC


211100Z 2112/2212 04016KT 9999 FEW035 BKN055
TEMPO 2112/2118 02015G25KT



MET'MAP, your aeronautical weather chart ! - Copyright ORBIFLY December 2007 - Disclaimer

ORBIFLY MET'MAP TEAM :

Programming & Development : Alexandra Zaïnal
Original concept : Baudouin d'Aumeries
Technical & hardware support : Manuel Goepfert
Assistance : Marc-Olivier Méhu




SOURCES & CREDITS :

   NOAA